Zia Pueblo, New Mexico
Current Conditions -  °F | °C
As of 2:35 AM on Friday 31 Oct 2014 (Local Time) from KAEG Reporting Station
Clear Clear  
Wind Chill: 43°   Ceiling: Unl
Heat Index: 43°   Visibility: 10mi
Dew Point: 21°   Wind: 0mph
Humidity: 42%   Direction: NA
Pressure: 30.37"   Gusts: NA
Location:  35.5626°N, 106.824°W
Report Text: KAEG 310835Z AUTO 00000KT 10SM CLR 06/M06 A3037 RMK AO2 T00611060
Loading
Personal Weather Stations






























Interactive Weather Map New forecast layout! Learn more

10-Day Weather Forecast

Advertisements
Track Severe Weather on mobile